PWSweather.com
Personal Weather Stations
Station Observations
AC5JC
Greenleaf Peninsula, Waco, Waco, TX 76710

Greenleaf Peninsula, WacoWaco, TX 76710

Lat: 31.565, Lon: -97.198

Elevation: 570

Station Type: Ambient WS-1400IP

http://ac5jc.dyndns.org

Latest ConditionsUpdated 8:30:00 PM CDT Sunday, Aug 19, 2018
Currently Today's Max Today's Min Today's Average
Temperature 76.6°F24.8°C 99.1°F37.3°C 76.5°F24.7°C 86.8°F30.4°C
Dew Point 74.7°F23.7°C 77.4°F25.2°C 59.6°F15.3°C 66.6°F19.2°C
Winds 0.1 mph SSE0.2 kmh SSE 8.4 mph -13.5 kmh - - 2.8 mph 4.5 kmh
Wind Gusts 2.5 mph4.0 kmh 19.9 mph32.0 kmh - -
Humidity 94% 94% 28% 54%
Pressure 29.25 in990.5 mb 29.34 in993.6 mb 29.20 in988.8 mb -
Precipitation - 0.12 in3.0 mm - -
Hour Temp Dew Point Humidity Winds Wind Gusts Pressure Precip Precip Rate Daily Precip Total
08:30 PM 76.6°F24.8°C 74.7°F23.7°C 94% 0.1 mph SSE0.2 kmh SSE 2.5 mph4.0 kmh 29.25 in990.5 mb 0.07 in1.8 mm 0.00 in0.0 mm 0.12 in3.0 mm
08:25 PM 76.5°F24.7°C 74.3°F23.5°C 93% Calm Calm -- 29.26 in990.9 mb 0.07 in1.8 mm 0.00 in0.0 mm 0.12 in3.0 mm
08:20 PM 76.5°F24.7°C 74.6°F23.7°C 94% Calm Calm -- 29.25 in990.5 mb 0.08 in2.0 mm 0.00 in0.0 mm 0.12 in3.0 mm
08:15 PM 76.5°F24.7°C 74.6°F23.7°C 94% Calm Calm -- 29.26 in990.9 mb 0.10 in2.5 mm 0.00 in0.0 mm 0.12 in3.0 mm
08:10 PM 76.5°F24.7°C 74.6°F23.7°C 94% Calm Calm -- 29.26 in990.9 mb 0.10 in2.5 mm 0.00 in0.0 mm 0.12 in3.0 mm
08:05 PM 76.5°F24.7°C 74.6°F23.7°C 94% Calm Calm -- 29.26 in990.9 mb 0.10 in2.5 mm 0.00 in0.0 mm 0.11 in2.8 mm
08:00 PM 76.5°F24.7°C 74.5°F23.6°C 94% Calm Calm -- 29.26 in990.9 mb 0.10 in2.5 mm 0.00 in0.0 mm 0.11 in2.8 mm
07:55 PM 76.6°F24.8°C 74.4°F23.6°C 93% Calm Calm -- 29.26 in990.9 mb 0.11 in2.8 mm 0.00 in0.0 mm 0.11 in2.8 mm
07:50 PM 76.7°F24.8°C 74.5°F23.6°C 93% Calm Calm -- 29.26 in990.9 mb 0.11 in2.8 mm 0.00 in0.0 mm 0.11 in2.8 mm
07:45 PM 77.2°F25.1°C 74.8°F23.8°C 92% 0.2 mph WSW0.3 kmh WSW 2.5 mph4.0 kmh 29.26 in990.9 mb 0.11 in2.8 mm 0.36 in9.1 mm 0.11 in2.8 mm
07:40 PM 77.7°F25.4°C 75.2°F24.0°C 92% 0.4 mph WSW0.6 kmh WSW 2.5 mph4.0 kmh 29.26 in990.9 mb 0.08 in2.0 mm 0.12 in3.0 mm 0.08 in2.0 mm
07:35 PM 78.3°F25.7°C 75.1°F23.9°C 90% Calm Calm 2.5 mph4.0 kmh 29.26 in990.9 mb 0.07 in1.8 mm 0.24 in6.1 mm 0.07 in1.8 mm
07:30 PM 78.9°F26.1°C 75.4°F24.1°C 89% Calm Calm 2.5 mph4.0 kmh 29.27 in991.2 mb 0.05 in1.3 mm 0.00 in0.0 mm 0.05 in1.3 mm
07:25 PM 80.1°F26.7°C 75.8°F24.3°C 87% Calm Calm -- 29.26 in990.9 mb 0.05 in1.3 mm 0.12 in3.0 mm 0.05 in1.3 mm
07:20 PM 81.7°F27.6°C 76.3°F24.6°C 84% 0.1 mph WSW0.2 kmh WSW 2.5 mph4.0 kmh 29.26 in990.9 mb 0.04 in1.0 mm 0.24 in6.1 mm 0.04 in1.0 mm
07:15 PM 83.0°F28.3°C 76.4°F24.7°C 80% 1.4 mph NW2.3 kmh NW 4.9 mph7.9 kmh 29.25 in990.5 mb 0.02 in0.5 mm 0.00 in0.0 mm 0.02 in0.5 mm
07:10 PM 84.3°F29.1°C 77.4°F25.2°C 80% 2.6 mph NW4.2 kmh NW 7.4 mph11.9 kmh 29.24 in990.2 mb 0.02 in0.5 mm 0.12 in3.0 mm 0.02 in0.5 mm
07:05 PM 85.8°F29.9°C 77.0°F25.0°C 75% 1.9 mph NW3.1 kmh NW 4.9 mph7.9 kmh 29.24 in990.2 mb 0.01 in0.3 mm 0.00 in0.0 mm 0.01 in0.3 mm
07:00 PM 87.2°F30.7°C 74.8°F23.8°C 67% 2.0 mph W3.2 kmh W 4.9 mph7.9 kmh 29.24 in990.2 mb 0.01 in0.3 mm 0.01 in0.3 mm 0.01 in0.3 mm
06:55 PM 87.8°F31.0°C 70.0°F21.1°C 56% 4.2 mph NW6.8 kmh NW 7.4 mph11.9 kmh 29.24 in990.2 mb 0.00 in0.0 mm 0.00 in0.0 mm 0.00 in0.0 mm
06:50 PM 88.1°F31.2°C 68.5°F20.3°C 52% 2.8 mph W4.5 kmh W 12.3 mph19.8 kmh 29.23 in989.8 mb 0.00 in0.0 mm 0.00 in0.0 mm 0.00 in0.0 mm
06:45 PM 88.2°F31.2°C 68.4°F20.2°C 52% 1.3 mph ENE2.1 kmh ENE 4.9 mph7.9 kmh 29.22 in989.5 mb 0.00 in0.0 mm 0.00 in0.0 mm 0.00 in0.0 mm
06:40 PM 88.3°F31.3°C 67.7°F19.8°C 51% 1.4 mph NNE2.3 kmh NNE 4.9 mph7.9 kmh 29.22 in989.5 mb 0.00 in0.0 mm 0.00 in0.0 mm 0.00 in0.0 mm
06:35 PM 88.6°F31.4°C 68.0°F20.0°C 51% 1.6 mph N2.6 kmh N 7.4 mph11.9 kmh 29.22 in989.5 mb 0.00 in0.0 mm 0.00 in0.0 mm 0.00 in0.0 mm
06:30 PM 89.3°F31.8°C 68.8°F20.4°C 51% 0.6 mph NW1.0 kmh NW 2.5 mph4.0 kmh 29.22 in989.5 mb 0.00 in0.0 mm 0.00 in0.0 mm 0.00 in0.0 mm
06:25 PM 90.4°F32.4°C 69.5°F20.8°C 50% 0.2 mph WSW0.3 kmh WSW 2.5 mph4.0 kmh 29.22 in989.5 mb 0.00 in0.0 mm 0.00 in0.0 mm 0.00 in0.0 mm
06:20 PM 91.7°F33.2°C 70.3°F21.3°C 50% Calm Calm -- 29.22 in989.5 mb 0.00 in0.0 mm 0.00 in0.0 mm 0.00 in0.0 mm
06:15 PM 92.7°F33.7°C 71.3°F21.8°C 50% 1.5 mph N2.4 kmh N 4.9 mph7.9 kmh 29.21 in989.2 mb 0.00 in0.0 mm 0.00 in0.0 mm 0.00 in0.0 mm
06:10 PM 93.8°F34.3°C 71.8°F22.1°C 49% 2.2 mph NW3.5 kmh NW 4.9 mph7.9 kmh 29.22 in989.5 mb 0.00 in0.0 mm 0.00 in0.0 mm 0.00 in0.0 mm
06:05 PM 94.8°F34.9°C 68.7°F20.4°C 43% 5.4 mph NNW8.7 kmh NNW 12.3 mph19.8 kmh 29.21 in989.2 mb 0.00 in0.0 mm 0.00 in0.0 mm 0.00 in0.0 mm
06:00 PM 95.4°F35.2°C 61.8°F16.6°C 33% 1.5 mph SW2.4 kmh SW 4.9 mph7.9 kmh 29.21 in989.2 mb 0.00 in0.0 mm 0.00 in0.0 mm 0.00 in0.0 mm
05:55 PM 95.5°F35.3°C 60.0°F15.6°C 31% 2.4 mph SE3.9 kmh SE 7.4 mph11.9 kmh 29.21 in989.2 mb 0.00 in0.0 mm 0.00 in0.0 mm 0.00 in0.0 mm
05:50 PM 95.7°F35.4°C 60.1°F15.6°C 31% 4.9 mph E7.9 kmh E 9.8 mph15.8 kmh 29.20 in988.8 mb 0.00 in0.0 mm 0.00 in0.0 mm 0.00 in0.0 mm
05:45 PM 95.9°F35.5°C 60.3°F15.7°C 31% 4.9 mph SSE7.9 kmh SSE 9.8 mph15.8 kmh 29.20 in988.8 mb 0.00 in0.0 mm 0.00 in0.0 mm 0.00 in0.0 mm
05:40 PM 96.2°F35.7°C 60.6°F15.9°C 31% 5.0 mph SSE8.0 kmh SSE 15.0 mph24.1 kmh 29.20 in988.8 mb 0.00 in0.0 mm 0.00 in0.0 mm 0.00 in0.0 mm
05:35 PM 96.6°F35.9°C 61.0°F16.1°C 31% 6.1 mph SE9.8 kmh SE 15.0 mph24.1 kmh 29.21 in989.2 mb 0.00 in0.0 mm 0.00 in0.0 mm 0.00 in0.0 mm
05:30 PM 96.9°F36.1°C 61.2°F16.2°C 31% 5.1 mph S8.2 kmh S 9.8 mph15.8 kmh 29.20 in988.8 mb 0.00 in0.0 mm 0.00 in0.0 mm 0.00 in0.0 mm
05:25 PM 97.2°F36.2°C 61.8°F16.6°C 31% 5.7 mph SSW9.2 kmh SSW 9.8 mph15.8 kmh 29.21 in989.2 mb 0.00 in0.0 mm 0.00 in0.0 mm 0.00 in0.0 mm
05:20 PM 97.5°F36.4°C 61.7°F16.5°C 31% 5.4 mph SSE8.7 kmh SSE 9.8 mph15.8 kmh 29.21 in989.2 mb 0.00 in0.0 mm 0.00 in0.0 mm 0.00 in0.0 mm
05:15 PM 97.8°F36.6°C 61.1°F16.2°C 30% 3.6 mph SSE5.8 kmh SSE 7.4 mph11.9 kmh 29.20 in988.8 mb 0.00 in0.0 mm 0.00 in0.0 mm 0.00 in0.0 mm
05:10 PM 98.0°F36.7°C 61.2°F16.2°C 30% 6.4 mph SSE10.3 kmh SSE 9.8 mph15.8 kmh 29.21 in989.2 mb 0.00 in0.0 mm 0.00 in0.0 mm 0.00 in0.0 mm
05:05 PM 98.1°F36.7°C 61.3°F16.3°C 30% 5.2 mph SE8.4 kmh SE 9.8 mph15.8 kmh 29.21 in989.2 mb 0.00 in0.0 mm 0.00 in0.0 mm 0.00 in0.0 mm
05:00 PM 98.3°F36.8°C 61.5°F16.4°C 30% 3.0 mph S4.8 kmh S 7.4 mph11.9 kmh 29.21 in989.2 mb 0.00 in0.0 mm 0.00 in0.0 mm 0.00 in0.0 mm
04:55 PM 98.8°F37.1°C 60.7°F15.9°C 29% 4.4 mph SSE7.1 kmh SSE 9.8 mph15.8 kmh 29.21 in989.2 mb 0.00 in0.0 mm 0.00 in0.0 mm 0.00 in0.0 mm
04:50 PM 99.0°F37.2°C 60.9°F16.1°C 29% 2.4 mph S3.9 kmh S 4.9 mph7.9 kmh 29.21 in989.2 mb 0.00 in0.0 mm 0.00 in0.0 mm 0.00 in0.0 mm
04:45 PM 99.1°F37.3°C 61.2°F16.2°C 29% 5.0 mph S8.0 kmh S 12.3 mph19.8 kmh 29.21 in989.2 mb 0.00 in0.0 mm 0.00 in0.0 mm 0.00 in0.0 mm
04:40 PM 99.1°F37.3°C 61.6°F16.4°C 29% 4.9 mph SSW7.9 kmh SSW 7.4 mph11.9 kmh 29.22 in989.5 mb 0.00 in0.0 mm 0.00 in0.0 mm 0.00 in0.0 mm
04:35 PM 99.1°F37.3°C 60.2°F15.7°C 28% 2.9 mph S4.7 kmh S 9.8 mph15.8 kmh 29.22 in989.5 mb 0.00 in0.0 mm 0.00 in0.0 mm 0.00 in0.0 mm
04:30 PM 99.0°F37.2°C 60.1°F15.6°C 28% 3.5 mph S5.6 kmh S 9.8 mph15.8 kmh 29.22 in989.5 mb 0.00 in0.0 mm 0.00 in0.0 mm 0.00 in0.0 mm
04:25 PM 98.8°F37.1°C 60.4°F15.8°C 28% 2.0 mph SSW3.2 kmh SSW 4.9 mph7.9 kmh 29.22 in989.5 mb 0.00 in0.0 mm 0.00 in0.0 mm 0.00 in0.0 mm
04:20 PM 98.6°F37.0°C 60.3°F15.7°C 28% 0.5 mph SW0.8 kmh SW 2.5 mph4.0 kmh 29.22 in989.5 mb 0.00 in0.0 mm 0.00 in0.0 mm 0.00 in0.0 mm
04:15 PM 98.6°F37.0°C 60.4°F15.8°C 29% 0.7 mph SW1.1 kmh SW 2.5 mph4.0 kmh 29.23 in989.8 mb 0.00 in0.0 mm 0.00 in0.0 mm 0.00 in0.0 mm
04:10 PM 98.5°F36.9°C 61.7°F16.5°C 30% 1.6 mph S2.6 kmh S 7.4 mph11.9 kmh 29.23 in989.8 mb 0.00 in0.0 mm 0.00 in0.0 mm 0.00 in0.0 mm
04:05 PM 98.4°F36.9°C 62.0°F16.7°C 30% 2.5 mph SSE4.0 kmh SSE 7.4 mph11.9 kmh 29.23 in989.8 mb 0.00 in0.0 mm 0.00 in0.0 mm 0.00 in0.0 mm
04:00 PM 98.4°F36.9°C 62.1°F16.7°C 31% 3.4 mph SSW5.5 kmh SSW 9.8 mph15.8 kmh 29.23 in989.8 mb 0.00 in0.0 mm 0.00 in0.0 mm 0.00 in0.0 mm
03:55 PM 98.4°F36.9°C 61.0°F16.1°C 29% 3.5 mph S5.6 kmh S 9.8 mph15.8 kmh 29.23 in989.8 mb 0.00 in0.0 mm 0.00 in0.0 mm 0.00 in0.0 mm
03:50 PM 98.6°F37.0°C 60.9°F16.1°C 29% 4.9 mph S7.9 kmh S 12.3 mph19.8 kmh 29.23 in989.8 mb 0.00 in0.0 mm 0.00 in0.0 mm 0.00 in0.0 mm
03:45 PM 98.4°F36.9°C 61.0°F16.1°C 29% 2.6 mph SSE4.2 kmh SSE 7.4 mph11.9 kmh 29.24 in990.2 mb 0.00 in0.0 mm 0.00 in0.0 mm 0.00 in0.0 mm
03:40 PM 98.6°F37.0°C 61.2°F16.2°C 29% 3.0 mph SSE4.8 kmh SSE 7.4 mph11.9 kmh 29.24 in990.2 mb 0.00 in0.0 mm 0.00 in0.0 mm 0.00 in0.0 mm
03:35 PM 98.8°F37.1°C 61.7°F16.5°C 30% 3.3 mph S5.3 kmh S 15.0 mph24.1 kmh 29.24 in990.2 mb 0.00 in0.0 mm 0.00 in0.0 mm 0.00 in0.0 mm
03:30 PM 99.0°F37.2°C 61.1°F16.2°C 29% 3.3 mph S5.3 kmh S 9.8 mph15.8 kmh 29.25 in990.5 mb 0.00 in0.0 mm 0.00 in0.0 mm 0.00 in0.0 mm
03:25 PM 99.0°F37.2°C 60.7°F15.9°C 29% 5.5 mph S8.9 kmh S 12.3 mph19.8 kmh 29.25 in990.5 mb 0.00 in0.0 mm 0.00 in0.0 mm 0.00 in0.0 mm
03:20 PM 98.6°F37.0°C 61.3°F16.3°C 30% 1.6 mph SW2.6 kmh SW 4.9 mph7.9 kmh 29.25 in990.5 mb 0.00 in0.0 mm 0.00 in0.0 mm 0.00 in0.0 mm
03:15 PM 98.6°F37.0°C 61.0°F16.1°C 29% 3.1 mph WSW5.0 kmh WSW 7.4 mph11.9 kmh 29.26 in990.9 mb 0.00 in0.0 mm 0.00 in0.0 mm 0.00 in0.0 mm
03:10 PM 98.5°F36.9°C 60.7°F15.9°C 29% 4.6 mph S7.4 kmh S 9.8 mph15.8 kmh 29.26 in990.9 mb 0.00 in0.0 mm 0.00 in0.0 mm 0.00 in0.0 mm
03:05 PM 98.2°F36.8°C 60.7°F15.9°C 29% 1.1 mph WSW1.8 kmh WSW 2.5 mph4.0 kmh 29.26 in990.9 mb 0.00 in0.0 mm 0.00 in0.0 mm 0.00 in0.0 mm
03:00 PM 97.8°F36.6°C 61.2°F16.2°C 30% 0.7 mph S1.1 kmh S 4.9 mph7.9 kmh 29.26 in990.9 mb 0.00 in0.0 mm 0.00 in0.0 mm 0.00 in0.0 mm
02:55 PM 97.5°F36.4°C 61.2°F16.2°C 30% 3.3 mph SSW5.3 kmh SSW 7.4 mph11.9 kmh 29.27 in991.2 mb 0.00 in0.0 mm 0.00 in0.0 mm 0.00 in0.0 mm
02:50 PM 97.4°F36.3°C 59.6°F15.3°C 29% 1.3 mph WSW2.1 kmh WSW 4.9 mph7.9 kmh 29.27 in991.2 mb 0.00 in0.0 mm 0.00 in0.0 mm 0.00 in0.0 mm
02:45 PM 97.2°F36.2°C 59.6°F15.3°C 29% 1.4 mph SSW2.3 kmh SSW 4.9 mph7.9 kmh 29.27 in991.2 mb 0.00 in0.0 mm 0.00 in0.0 mm 0.00 in0.0 mm
02:40 PM 96.9°F36.1°C 60.6°F15.9°C 30% 0.9 mph SSW1.4 kmh SSW 4.9 mph7.9 kmh 29.27 in991.2 mb 0.00 in0.0 mm 0.00 in0.0 mm 0.00 in0.0 mm
02:35 PM 96.6°F35.9°C 62.1°F16.7°C 32% 1.5 mph SE2.4 kmh SE 7.4 mph11.9 kmh 29.27 in991.2 mb 0.00 in0.0 mm 0.00 in0.0 mm 0.00 in0.0 mm
02:30 PM 96.6°F35.9°C 62.0°F16.7°C 32% 2.7 mph W4.3 kmh W 4.9 mph7.9 kmh 29.27 in991.2 mb 0.00 in0.0 mm 0.00 in0.0 mm 0.00 in0.0 mm
02:25 PM 96.3°F35.7°C 60.0°F15.6°C 30% 1.9 mph WSW3.1 kmh WSW 4.9 mph7.9 kmh 29.27 in991.2 mb 0.00 in0.0 mm 0.00 in0.0 mm 0.00 in0.0 mm
02:20 PM 96.1°F35.6°C 61.0°F16.1°C 32% 1.6 mph SSE2.6 kmh SSE 7.4 mph11.9 kmh 29.28 in991.5 mb 0.00 in0.0 mm 0.00 in0.0 mm 0.00 in0.0 mm
02:15 PM 95.9°F35.5°C 61.2°F16.2°C 32% 1.4 mph S2.3 kmh S 7.4 mph11.9 kmh 29.28 in991.5 mb 0.00 in0.0 mm 0.00 in0.0 mm 0.00 in0.0 mm
02:10 PM 95.7°F35.4°C 61.1°F16.2°C 32% 0.9 mph WSW1.4 kmh WSW 4.9 mph7.9 kmh 29.28 in991.5 mb 0.00 in0.0 mm 0.00 in0.0 mm 0.00 in0.0 mm
02:05 PM 95.5°F35.3°C 61.3°F16.3°C 32% 1.0 mph WSW1.6 kmh WSW 4.9 mph7.9 kmh 29.28 in991.5 mb 0.00 in0.0 mm 0.00 in0.0 mm 0.00 in0.0 mm
02:00 PM 95.5°F35.3°C 61.6°F16.4°C 33% 1.6 mph WSW2.6 kmh WSW 2.5 mph4.0 kmh 29.29 in991.9 mb 0.00 in0.0 mm 0.00 in0.0 mm 0.00 in0.0 mm
01:55 PM 95.4°F35.2°C 61.0°F16.1°C 32% 1.5 mph SW2.4 kmh SW 4.9 mph7.9 kmh 29.29 in991.9 mb 0.00 in0.0 mm 0.00 in0.0 mm 0.00 in0.0 mm
01:50 PM 95.2°F35.1°C 60.9°F16.1°C 32% 1.0 mph WSW1.6 kmh WSW 4.9 mph7.9 kmh 29.29 in991.9 mb 0.00 in0.0 mm 0.00 in0.0 mm 0.00 in0.0 mm
01:45 PM 94.7°F34.8°C 61.9°F16.6°C 34% 2.2 mph S3.5 kmh S 7.4 mph11.9 kmh 29.29 in991.9 mb 0.00 in0.0 mm 0.00 in0.0 mm 0.00 in0.0 mm
01:40 PM 94.5°F34.7°C 61.1°F16.2°C 33% 2.2 mph S3.5 kmh S 7.4 mph11.9 kmh 29.30 in992.2 mb 0.00 in0.0 mm 0.00 in0.0 mm 0.00 in0.0 mm
01:35 PM 94.5°F34.7°C 61.1°F16.2°C 33% 4.5 mph S7.2 kmh S 12.3 mph19.8 kmh 29.30 in992.2 mb 0.00 in0.0 mm 0.00 in0.0 mm 0.00 in0.0 mm
01:30 PM 94.3°F34.6°C 62.1°F16.7°C 35% 2.4 mph SSW3.9 kmh SSW 7.4 mph11.9 kmh 29.30 in992.2 mb 0.00 in0.0 mm 0.00 in0.0 mm 0.00 in0.0 mm
01:25 PM 94.3°F34.6°C 63.8°F17.7°C 37% 0.5 mph WSW0.8 kmh WSW 2.5 mph4.0 kmh 29.30 in992.2 mb 0.00 in0.0 mm 0.00 in0.0 mm 0.00 in0.0 mm
01:20 PM 94.1°F34.5°C 63.9°F17.7°C 37% 5.6 mph S9.0 kmh S 9.8 mph15.8 kmh 29.30 in992.2 mb 0.00 in0.0 mm 0.00 in0.0 mm 0.00 in0.0 mm
01:15 PM 94.1°F34.5°C 63.5°F17.5°C 37% 5.2 mph SSE8.4 kmh SSE 9.8 mph15.8 kmh 29.31 in992.6 mb 0.00 in0.0 mm 0.00 in0.0 mm 0.00 in0.0 mm
01:10 PM 93.9°F34.4°C 62.7°F17.1°C 36% 1.3 mph SSW2.1 kmh SSW 4.9 mph7.9 kmh 29.31 in992.6 mb 0.00 in0.0 mm 0.00 in0.0 mm 0.00 in0.0 mm
01:05 PM 93.7°F34.3°C 61.9°F16.6°C 35% 2.0 mph SW3.2 kmh SW 4.9 mph7.9 kmh 29.31 in992.6 mb 0.00 in0.0 mm 0.00 in0.0 mm 0.00 in0.0 mm
01:00 PM 93.5°F34.2°C 62.9°F17.2°C 37% 0.6 mph SSW1.0 kmh SSW 2.5 mph4.0 kmh 29.31 in992.6 mb 0.00 in0.0 mm 0.00 in0.0 mm 0.00 in0.0 mm
12:55 PM 93.4°F34.1°C 63.6°F17.6°C 38% 0.8 mph SW1.3 kmh SW 4.9 mph7.9 kmh 29.31 in992.6 mb 0.00 in0.0 mm 0.00 in0.0 mm 0.00 in0.0 mm
12:50 PM 93.4°F34.1°C 64.2°F17.9°C 38% 0.4 mph WSW0.6 kmh WSW 2.5 mph4.0 kmh 29.31 in992.6 mb 0.00 in0.0 mm 0.00 in0.0 mm 0.00 in0.0 mm
12:45 PM 93.2°F34.0°C 63.6°F17.6°C 38% 1.1 mph S1.8 kmh S 4.9 mph7.9 kmh 29.31 in992.6 mb 0.00 in0.0 mm 0.00 in0.0 mm 0.00 in0.0 mm
12:40 PM 93.1°F33.9°C 65.3°F18.5°C 40% 1.5 mph SW2.4 kmh SW 2.5 mph4.0 kmh 29.31 in992.6 mb 0.00 in0.0 mm 0.00 in0.0 mm 0.00 in0.0 mm
12:35 PM 92.8°F33.8°C 64.2°F17.9°C 39% 3.8 mph SSE6.1 kmh SSE 9.8 mph15.8 kmh 29.31 in992.6 mb 0.00 in0.0 mm 0.00 in0.0 mm 0.00 in0.0 mm
12:30 PM 92.4°F33.6°C 64.2°F17.9°C 40% 1.0 mph ESE1.6 kmh ESE 4.9 mph7.9 kmh 29.32 in992.9 mb 0.00 in0.0 mm 0.00 in0.0 mm 0.00 in0.0 mm
12:25 PM 92.2°F33.4°C 63.6°F17.6°C 39% 1.8 mph SW2.9 kmh SW 4.9 mph7.9 kmh 29.32 in992.9 mb 0.00 in0.0 mm 0.00 in0.0 mm 0.00 in0.0 mm
12:20 PM 91.7°F33.2°C 63.9°F17.7°C 40% 0.8 mph SW1.3 kmh SW 2.5 mph4.0 kmh 29.32 in992.9 mb 0.00 in0.0 mm 0.00 in0.0 mm 0.00 in0.0 mm
12:15 PM 91.5°F33.1°C 64.6°F18.1°C 41% 1.2 mph WSW1.9 kmh WSW 4.9 mph7.9 kmh 29.32 in992.9 mb 0.00 in0.0 mm 0.00 in0.0 mm 0.00 in0.0 mm
12:10 PM 91.1°F32.8°C 65.0°F18.3°C 42% 2.0 mph SSW3.2 kmh SSW 9.8 mph15.8 kmh 29.32 in992.9 mb 0.00 in0.0 mm 0.00 in0.0 mm 0.00 in0.0 mm
12:05 PM 90.9°F32.7°C 65.8°F18.8°C 44% 5.3 mph S8.5 kmh S 12.3 mph19.8 kmh 29.33 in993.2 mb 0.00 in0.0 mm 0.00 in0.0 mm 0.00 in0.0 mm
12:00 PM 90.7°F32.6°C 64.7°F18.2°C 42% 3.6 mph S5.8 kmh S 9.8 mph15.8 kmh 29.33 in993.2 mb 0.00 in0.0 mm 0.00 in0.0 mm 0.00 in0.0 mm
11:55 AM 90.5°F32.5°C 65.3°F18.5°C 44% 3.8 mph S6.1 kmh S 9.8 mph15.8 kmh 29.33 in993.2 mb 0.00 in0.0 mm 0.00 in0.0 mm 0.00 in0.0 mm
11:50 AM 90.5°F32.5°C 64.9°F18.3°C 43% 2.5 mph SW4.0 kmh SW 7.4 mph11.9 kmh 29.33 in993.2 mb 0.00 in0.0 mm 0.00 in0.0 mm 0.00 in0.0 mm
11:45 AM 90.2°F32.3°C 66.0°F18.9°C 45% 1.3 mph SW2.1 kmh SW 4.9 mph7.9 kmh 29.33 in993.2 mb 0.00 in0.0 mm 0.00 in0.0 mm 0.00 in0.0 mm
11:40 AM 90.1°F32.3°C 67.4°F19.7°C 47% 1.8 mph SW2.9 kmh SW 4.9 mph7.9 kmh 29.33 in993.2 mb 0.00 in0.0 mm 0.00 in0.0 mm 0.00 in0.0 mm
11:35 AM 90.1°F32.3°C 66.0°F18.9°C 45% 3.4 mph S5.5 kmh S 7.4 mph11.9 kmh 29.34 in993.6 mb 0.00 in0.0 mm 0.00 in0.0 mm 0.00 in0.0 mm
11:30 AM 89.9°F32.2°C 65.8°F18.8°C 45% 1.6 mph S2.6 kmh S 7.4 mph11.9 kmh 29.33 in993.2 mb 0.00 in0.0 mm 0.00 in0.0 mm 0.00 in0.0 mm
11:25 AM 89.5°F31.9°C 65.9°F18.8°C 46% 0.5 mph WSW0.8 kmh WSW 2.5 mph4.0 kmh 29.34 in993.6 mb 0.00 in0.0 mm 0.00 in0.0 mm 0.00 in0.0 mm
11:20 AM 89.1°F31.7°C 66.4°F19.1°C 47% 1.1 mph SSE1.8 kmh SSE 7.4 mph11.9 kmh 29.34 in993.6 mb 0.00 in0.0 mm 0.00 in0.0 mm 0.00 in0.0 mm
11:15 AM 88.7°F31.5°C 66.4°F19.1°C 48% 2.2 mph WSW3.5 kmh WSW 4.9 mph7.9 kmh 29.34 in993.6 mb 0.00 in0.0 mm 0.00 in0.0 mm 0.00 in0.0 mm
11:10 AM 88.3°F31.3°C 66.4°F19.1°C 49% 1.3 mph SSW2.1 kmh SSW 4.9 mph7.9 kmh 29.34 in993.6 mb 0.00 in0.0 mm 0.00 in0.0 mm 0.00 in0.0 mm
11:05 AM 87.9°F31.1°C 66.6°F19.2°C 49% 2.3 mph S3.7 kmh S 7.4 mph11.9 kmh 29.34 in993.6 mb 0.00 in0.0 mm 0.00 in0.0 mm 0.00 in0.0 mm
11:00 AM 87.5°F30.8°C 66.6°F19.2°C 50% 1.1 mph SSE1.8 kmh SSE 7.4 mph11.9 kmh 29.34 in993.6 mb 0.00 in0.0 mm 0.00 in0.0 mm 0.00 in0.0 mm
10:55 AM 86.9°F30.5°C 66.4°F19.1°C 51% 1.7 mph SW2.7 kmh SW 4.9 mph7.9 kmh 29.34 in993.6 mb 0.00 in0.0 mm 0.00 in0.0 mm 0.00 in0.0 mm
10:50 AM 86.4°F30.2°C 66.5°F19.2°C 52% 1.8 mph WSW2.9 kmh WSW 4.9 mph7.9 kmh 29.34 in993.6 mb 0.00 in0.0 mm 0.00 in0.0 mm 0.00 in0.0 mm
10:45 AM 86.0°F30.0°C 65.9°F18.8°C 51% 2.1 mph SW3.4 kmh SW 7.4 mph11.9 kmh 29.34 in993.6 mb 0.00 in0.0 mm 0.00 in0.0 mm 0.00 in0.0 mm
10:40 AM 85.6°F29.8°C 65.7°F18.7°C 52% 1.7 mph S2.7 kmh S 4.9 mph7.9 kmh 29.34 in993.6 mb 0.00 in0.0 mm 0.00 in0.0 mm 0.00 in0.0 mm
10:35 AM 85.4°F29.7°C 66.9°F19.4°C 54% 0.7 mph SW1.1 kmh SW 2.5 mph4.0 kmh 29.34 in993.6 mb 0.00 in0.0 mm 0.00 in0.0 mm 0.00 in0.0 mm
10:30 AM 85.3°F29.6°C 68.0°F20.0°C 56% 0.8 mph SSW1.3 kmh SSW 7.4 mph11.9 kmh 29.34 in993.6 mb 0.00 in0.0 mm 0.00 in0.0 mm 0.00 in0.0 mm
10:25 AM 85.4°F29.7°C 69.1°F20.6°C 58% 0.2 mph WSW0.3 kmh WSW 2.5 mph4.0 kmh 29.34 in993.6 mb 0.00 in0.0 mm 0.00 in0.0 mm 0.00 in0.0 mm
10:20 AM 85.5°F29.7°C 69.0°F20.6°C 58% 1.2 mph W1.9 kmh W 2.5 mph4.0 kmh 29.34 in993.6 mb 0.00 in0.0 mm 0.00 in0.0 mm 0.00 in0.0 mm
10:15 AM 85.6°F29.8°C 68.6°F20.3°C 57% 0.9 mph W1.4 kmh W 4.9 mph7.9 kmh 29.33 in993.2 mb 0.00 in0.0 mm 0.00 in0.0 mm 0.00 in0.0 mm
10:10 AM 85.5°F29.7°C 67.9°F19.9°C 56% 0.3 mph W0.5 kmh W 2.5 mph4.0 kmh 29.34 in993.6 mb 0.00 in0.0 mm 0.00 in0.0 mm 0.00 in0.0 mm
10:05 AM 85.2°F29.6°C 67.2°F19.6°C 55% 1.3 mph SE2.1 kmh SE 7.4 mph11.9 kmh 29.33 in993.2 mb 0.00 in0.0 mm 0.00 in0.0 mm 0.00 in0.0 mm
10:00 AM 84.8°F29.3°C 66.8°F19.3°C 55% 1.1 mph W1.8 kmh W 2.5 mph4.0 kmh 29.33 in993.2 mb 0.00 in0.0 mm 0.00 in0.0 mm 0.00 in0.0 mm
09:55 AM 84.5°F29.2°C 67.5°F19.7°C 57% 2.0 mph SW3.2 kmh SW 7.4 mph11.9 kmh 29.33 in993.2 mb 0.00 in0.0 mm 0.00 in0.0 mm 0.00 in0.0 mm
09:50 AM 84.4°F29.1°C 67.9°F19.9°C 58% 0.9 mph WSW1.4 kmh WSW 2.5 mph4.0 kmh 29.33 in993.2 mb 0.00 in0.0 mm 0.00 in0.0 mm 0.00 in0.0 mm
09:45 AM 84.0°F28.9°C 68.4°F20.2°C 60% 1.9 mph SW3.1 kmh SW 4.9 mph7.9 kmh 29.33 in993.2 mb 0.00 in0.0 mm 0.00 in0.0 mm 0.00 in0.0 mm
09:40 AM 83.8°F28.8°C 68.8°F20.4°C 61% 2.4 mph S3.9 kmh S 9.8 mph15.8 kmh 29.33 in993.2 mb 0.00 in0.0 mm 0.00 in0.0 mm 0.00 in0.0 mm
09:35 AM 83.5°F28.6°C 68.8°F20.4°C 61% 2.5 mph SSE4.0 kmh SSE 7.4 mph11.9 kmh 29.34 in993.6 mb 0.00 in0.0 mm 0.00 in0.0 mm 0.00 in0.0 mm
09:30 AM 83.1°F28.4°C 68.9°F20.5°C 62% 1.7 mph SW2.7 kmh SW 4.9 mph7.9 kmh 29.34 in993.6 mb 0.00 in0.0 mm 0.00 in0.0 mm 0.00 in0.0 mm
09:25 AM 82.8°F28.2°C 68.6°F20.3°C 62% 3.2 mph S5.1 kmh S 7.4 mph11.9 kmh 29.34 in993.6 mb 0.00 in0.0 mm 0.00 in0.0 mm 0.00 in0.0 mm
09:20 AM 82.5°F28.1°C 68.8°F20.4°C 63% 3.0 mph S4.8 kmh S 7.4 mph11.9 kmh 29.34 in993.6 mb 0.00 in0.0 mm 0.00 in0.0 mm 0.00 in0.0 mm
09:15 AM 82.3°F27.9°C 69.5°F20.8°C 65% 2.8 mph S4.5 kmh S 12.3 mph19.8 kmh 29.33 in993.2 mb 0.00 in0.0 mm 0.00 in0.0 mm 0.00 in0.0 mm
09:10 AM 82.0°F27.8°C 69.8°F21.0°C 67% 1.4 mph S2.3 kmh S 4.9 mph7.9 kmh 29.33 in993.2 mb 0.00 in0.0 mm 0.00 in0.0 mm 0.00 in0.0 mm
09:05 AM 81.8°F27.7°C 70.2°F21.2°C 68% 4.2 mph S6.8 kmh S 9.8 mph15.8 kmh 29.33 in993.2 mb 0.00 in0.0 mm 0.00 in0.0 mm 0.00 in0.0 mm
09:00 AM 81.6°F27.6°C 70.4°F21.3°C 69% 2.4 mph SW3.9 kmh SW 4.9 mph7.9 kmh 29.33 in993.2 mb 0.00 in0.0 mm 0.00 in0.0 mm 0.00 in0.0 mm
08:55 AM 81.3°F27.4°C 69.9°F21.1°C 69% 5.5 mph SSE8.9 kmh SSE 15.0 mph24.1 kmh 29.32 in992.9 mb 0.00 in0.0 mm 0.00 in0.0 mm 0.00 in0.0 mm
08:50 AM 80.9°F27.2°C 69.7°F20.9°C 69% 0.9 mph SW1.4 kmh SW 2.5 mph4.0 kmh 29.33 in993.2 mb 0.00 in0.0 mm 0.00 in0.0 mm 0.00 in0.0 mm
08:45 AM 80.5°F26.9°C 69.9°F21.1°C 70% 2.7 mph S4.3 kmh S 4.9 mph7.9 kmh 29.32 in992.9 mb 0.00 in0.0 mm 0.00 in0.0 mm 0.00 in0.0 mm
08:40 AM 80.2°F26.8°C 69.7°F20.9°C 70% 2.3 mph S3.7 kmh S 7.4 mph11.9 kmh 29.33 in993.2 mb 0.00 in0.0 mm 0.00 in0.0 mm 0.00 in0.0 mm
08:35 AM 79.9°F26.6°C 69.8°F21.0°C 72% 3.3 mph SSW5.3 kmh SSW 7.4 mph11.9 kmh 29.32 in992.9 mb 0.00 in0.0 mm 0.00 in0.0 mm 0.00 in0.0 mm
08:30 AM 79.5°F26.4°C 70.1°F21.2°C 73% 2.9 mph S4.7 kmh S 9.8 mph15.8 kmh 29.32 in992.9 mb 0.00 in0.0 mm 0.00 in0.0 mm 0.00 in0.0 mm
08:25 AM 79.2°F26.2°C 70.1°F21.2°C 74% 3.5 mph S5.6 kmh S 9.8 mph15.8 kmh 29.32 in992.9 mb 0.00 in0.0 mm 0.00 in0.0 mm 0.00 in0.0 mm
08:20 AM 79.0°F26.1°C 69.8°F21.0°C 73% 3.3 mph S5.3 kmh S 7.4 mph11.9 kmh 29.32 in992.9 mb 0.00 in0.0 mm 0.00 in0.0 mm 0.00 in0.0 mm
08:15 AM 78.8°F26.0°C 70.0°F21.1°C 75% 1.6 mph SSW2.6 kmh SSW 4.9 mph7.9 kmh 29.32 in992.9 mb 0.00 in0.0 mm 0.00 in0.0 mm 0.00 in0.0 mm
08:10 AM 78.6°F25.9°C 70.0°F21.1°C 75% 5.0 mph S8.0 kmh S 9.8 mph15.8 kmh 29.31 in992.6 mb 0.00 in0.0 mm 0.00 in0.0 mm 0.00 in0.0 mm
08:05 AM 78.6°F25.9°C 70.0°F21.1°C 75% 5.5 mph S8.9 kmh S 7.4 mph11.9 kmh 29.31 in992.6 mb 0.00 in0.0 mm 0.00 in0.0 mm 0.00 in0.0 mm
08:00 AM 78.3°F25.7°C 70.4°F21.3°C 77% 3.4 mph S5.5 kmh S 12.3 mph19.8 kmh 29.31 in992.6 mb 0.00 in0.0 mm 0.00 in0.0 mm 0.00 in0.0 mm
07:55 AM 78.1°F25.6°C 70.3°F21.3°C 77% 4.1 mph S6.6 kmh S 9.8 mph15.8 kmh 29.32 in992.9 mb 0.00 in0.0 mm 0.00 in0.0 mm 0.00 in0.0 mm
07:50 AM 77.9°F25.5°C 70.1°F21.2°C 77% 2.7 mph SSE4.3 kmh SSE 4.9 mph7.9 kmh 29.31 in992.6 mb 0.00 in0.0 mm 0.00 in0.0 mm 0.00 in0.0 mm
07:45 AM 77.6°F25.3°C 70.0°F21.1°C 77% 2.6 mph S4.2 kmh S 7.4 mph11.9 kmh 29.31 in992.6 mb 0.00 in0.0 mm 0.00 in0.0 mm 0.00 in0.0 mm
07:40 AM 77.5°F25.3°C 70.0°F21.1°C 78% 2.1 mph S3.4 kmh S 7.4 mph11.9 kmh 29.31 in992.6 mb 0.00 in0.0 mm 0.00 in0.0 mm 0.00 in0.0 mm
07:35 AM 77.4°F25.2°C 70.0°F21.1°C 78% 2.6 mph S4.2 kmh S 7.4 mph11.9 kmh 29.31 in992.6 mb 0.00 in0.0 mm 0.00 in0.0 mm 0.00 in0.0 mm
07:30 AM 77.5°F25.3°C 70.1°F21.2°C 78% 3.1 mph S5.0 kmh S 7.4 mph11.9 kmh 29.31 in992.6 mb 0.00 in0.0 mm 0.00 in0.0 mm 0.00 in0.0 mm
07:25 AM 77.7°F25.4°C 70.1°F21.2°C 78% 1.7 mph S2.7 kmh S 4.9 mph7.9 kmh 29.31 in992.6 mb 0.00 in0.0 mm 0.00 in0.0 mm 0.00 in0.0 mm
07:20 AM 78.0°F25.6°C 70.2°F21.2°C 77% 2.5 mph S4.0 kmh S 4.9 mph7.9 kmh 29.31 in992.6 mb 0.00 in0.0 mm 0.00 in0.0 mm 0.00 in0.0 mm
07:15 AM 78.2°F25.7°C 70.4°F21.3°C 77% 2.9 mph SSE4.7 kmh SSE 7.4 mph11.9 kmh 29.31 in992.6 mb 0.00 in0.0 mm 0.00 in0.0 mm 0.00 in0.0 mm
07:10 AM 78.4°F25.8°C 70.3°F21.3°C 76% 5.4 mph S8.7 kmh S 9.8 mph15.8 kmh 29.30 in992.2 mb 0.00 in0.0 mm 0.00 in0.0 mm 0.00 in0.0 mm
07:05 AM 78.4°F25.8°C 70.2°F21.2°C 76% 2.7 mph S4.3 kmh S 7.4 mph11.9 kmh 29.30 in992.2 mb 0.00 in0.0 mm 0.00 in0.0 mm 0.00 in0.0 mm
07:00 AM 78.5°F25.8°C 70.3°F21.3°C 76% 5.7 mph S9.2 kmh S 9.8 mph15.8 kmh 29.30 in992.2 mb 0.00 in0.0 mm 0.00 in0.0 mm 0.00 in0.0 mm
06:55 AM 78.6°F25.9°C 70.4°F21.3°C 76% 0.9 mph S1.4 kmh S 4.9 mph7.9 kmh 29.30 in992.2 mb 0.00 in0.0 mm 0.00 in0.0 mm 0.00 in0.0 mm
06:50 AM 78.6°F25.9°C 70.0°F21.1°C 75% 3.2 mph S5.1 kmh S 7.4 mph11.9 kmh 29.30 in992.2 mb 0.00 in0.0 mm 0.00 in0.0 mm 0.00 in0.0 mm
06:45 AM 78.6°F25.9°C 70.0°F21.1°C 75% 1.6 mph S2.6 kmh S 4.9 mph7.9 kmh 29.30 in992.2 mb 0.00 in0.0 mm 0.00 in0.0 mm 0.00 in0.0 mm
06:40 AM 78.6°F25.9°C 69.6°F20.9°C 74% 2.7 mph S4.3 kmh S 7.4 mph11.9 kmh 29.30 in992.2 mb 0.00 in0.0 mm 0.00 in0.0 mm 0.00 in0.0 mm
06:35 AM 78.6°F25.9°C 69.6°F20.9°C 74% 3.8 mph S6.1 kmh S 7.4 mph11.9 kmh 29.29 in991.9 mb 0.00 in0.0 mm 0.00 in0.0 mm 0.00 in0.0 mm
06:30 AM 78.6°F25.9°C 69.6°F20.9°C 74% 2.7 mph SW4.3 kmh SW 4.9 mph7.9 kmh 29.29 in991.9 mb 0.00 in0.0 mm 0.00 in0.0 mm 0.00 in0.0 mm
06:25 AM 78.6°F25.9°C 69.4°F20.8°C 73% 3.5 mph S5.6 kmh S 7.4 mph11.9 kmh 29.29 in991.9 mb 0.00 in0.0 mm 0.00 in0.0 mm 0.00 in0.0 mm
06:20 AM 78.6°F25.9°C 69.2°F20.7°C 73% 2.2 mph SE3.5 kmh SE 4.9 mph7.9 kmh 29.29 in991.9 mb 0.00 in0.0 mm 0.00 in0.0 mm 0.00 in0.0 mm
06:15 AM 78.6°F25.9°C 69.2°F20.7°C 73% 3.4 mph S5.5 kmh S 7.4 mph11.9 kmh 29.29 in991.9 mb 0.00 in0.0 mm 0.00 in0.0 mm 0.00 in0.0 mm
06:10 AM 78.6°F25.9°C 69.2°F20.7°C 73% 2.2 mph S3.5 kmh S 4.9 mph7.9 kmh 29.29 in991.9 mb 0.00 in0.0 mm 0.00 in0.0 mm 0.00 in0.0 mm
06:05 AM 78.6°F25.9°C 68.9°F20.5°C 72% 2.9 mph S4.7 kmh S 7.4 mph11.9 kmh 29.29 in991.9 mb 0.00 in0.0 mm 0.00 in0.0 mm 0.00 in0.0 mm
06:00 AM 78.6°F25.9°C 68.8°F20.4°C 72% 2.5 mph S4.0 kmh S 4.9 mph7.9 kmh 29.28 in991.5 mb 0.00 in0.0 mm 0.00 in0.0 mm 0.00 in0.0 mm
05:55 AM 78.6°F25.9°C 68.8°F20.4°C 72% 2.4 mph S3.9 kmh S 9.8 mph15.8 kmh 29.28 in991.5 mb 0.00 in0.0 mm 0.00 in0.0 mm 0.00 in0.0 mm
05:50 AM 78.6°F25.9°C 68.8°F20.4°C 72% 4.9 mph S7.9 kmh S 9.8 mph15.8 kmh 29.28 in991.5 mb 0.00 in0.0 mm 0.00 in0.0 mm 0.00 in0.0 mm
05:45 AM 78.7°F25.9°C 68.7°F20.4°C 72% 3.8 mph S6.1 kmh S 7.4 mph11.9 kmh 29.28 in991.5 mb 0.00 in0.0 mm 0.00 in0.0 mm 0.00 in0.0 mm
05:40 AM 78.8°F26.0°C 68.6°F20.3°C 71% 3.0 mph S4.8 kmh S 4.9 mph7.9 kmh 29.28 in991.5 mb 0.00 in0.0 mm 0.00 in0.0 mm 0.00 in0.0 mm
05:35 AM 78.9°F26.1°C 68.5°F20.3°C 71% 2.2 mph S3.5 kmh S 7.4 mph11.9 kmh 29.29 in991.9 mb 0.00 in0.0 mm 0.00 in0.0 mm 0.00 in0.0 mm
05:30 AM 79.0°F26.1°C 68.4°F20.2°C 70% 2.4 mph S3.9 kmh S 4.9 mph7.9 kmh 29.28 in991.5 mb 0.00 in0.0 mm 0.00 in0.0 mm 0.00 in0.0 mm
05:25 AM 79.2°F26.2°C 68.2°F20.1°C 69% 1.7 mph SSW2.7 kmh SSW 4.9 mph7.9 kmh 29.29 in991.9 mb 0.00 in0.0 mm 0.00 in0.0 mm 0.00 in0.0 mm
05:20 AM 79.2°F26.2°C 68.1°F20.1°C 69% 3.9 mph SSE6.3 kmh SSE 7.4 mph11.9 kmh 29.28 in991.5 mb 0.00 in0.0 mm 0.00 in0.0 mm 0.00 in0.0 mm
05:15 AM 79.3°F26.3°C 68.2°F20.1°C 69% 0.7 mph SSW1.1 kmh SSW 2.5 mph4.0 kmh 29.28 in991.5 mb 0.00 in0.0 mm 0.00 in0.0 mm 0.00 in0.0 mm
05:10 AM 79.4°F26.3°C 68.0°F20.0°C 68% 1.6 mph S2.6 kmh S 7.4 mph11.9 kmh 29.28 in991.5 mb 0.00 in0.0 mm 0.00 in0.0 mm 0.00 in0.0 mm
05:05 AM 79.7°F26.5°C 68.1°F20.1°C 68% 2.2 mph S3.5 kmh S 4.9 mph7.9 kmh 29.28 in991.5 mb 0.00 in0.0 mm 0.00 in0.0 mm 0.00 in0.0 mm
05:00 AM 79.8°F26.6°C 68.0°F20.0°C 67% 3.5 mph S5.6 kmh S 7.4 mph11.9 kmh 29.28 in991.5 mb 0.00 in0.0 mm 0.00 in0.0 mm 0.00 in0.0 mm
04:55 AM 80.0°F26.7°C 67.9°F19.9°C 67% 2.6 mph S4.2 kmh S 7.4 mph11.9 kmh 29.28 in991.5 mb 0.00 in0.0 mm 0.00 in0.0 mm 0.00 in0.0 mm
04:50 AM 80.2°F26.8°C 67.8°F19.9°C 66% 4.1 mph S6.6 kmh S 7.4 mph11.9 kmh 29.28 in991.5 mb 0.00 in0.0 mm 0.00 in0.0 mm 0.00 in0.0 mm
04:45 AM 80.4°F26.9°C 67.6°F19.8°C 65% 3.8 mph S6.1 kmh S 9.8 mph15.8 kmh 29.28 in991.5 mb 0.00 in0.0 mm 0.00 in0.0 mm 0.00 in0.0 mm
04:40 AM 80.6°F27.0°C 67.4°F19.7°C 64% 5.5 mph S8.9 kmh S 9.8 mph15.8 kmh 29.28 in991.5 mb 0.00 in0.0 mm 0.00 in0.0 mm 0.00 in0.0 mm
04:35 AM 80.8°F27.1°C 67.2°F19.6°C 64% 3.4 mph S5.5 kmh S 9.8 mph15.8 kmh 29.28 in991.5 mb 0.00 in0.0 mm 0.00 in0.0 mm 0.00 in0.0 mm
04:30 AM 80.9°F27.2°C 67.1°F19.5°C 63% 0.8 mph S1.3 kmh S 2.5 mph4.0 kmh 29.28 in991.5 mb 0.00 in0.0 mm 0.00 in0.0 mm 0.00 in0.0 mm
04:25 AM 81.0°F27.2°C 66.3°F19.1°C 61% 2.1 mph SSW3.4 kmh SSW 4.9 mph7.9 kmh 29.28 in991.5 mb 0.00 in0.0 mm 0.00 in0.0 mm 0.00 in0.0 mm
04:20 AM 81.1°F27.3°C 66.1°F18.9°C 60% 2.4 mph S3.9 kmh S 7.4 mph11.9 kmh 29.28 in991.5 mb 0.00 in0.0 mm 0.00 in0.0 mm 0.00 in0.0 mm
04:15 AM 81.2°F27.3°C 66.0°F18.9°C 60% 3.6 mph S5.8 kmh S 7.4 mph11.9 kmh 29.28 in991.5 mb 0.00 in0.0 mm 0.00 in0.0 mm 0.00 in0.0 mm
04:10 AM 81.3°F27.4°C 65.7°F18.7°C 59% 3.1 mph S5.0 kmh S 7.4 mph11.9 kmh 29.27 in991.2 mb 0.00 in0.0 mm 0.00 in0.0 mm 0.00 in0.0 mm
04:05 AM 81.4°F27.4°C 65.7°F18.7°C 59% 3.1 mph WSW5.0 kmh WSW 4.9 mph7.9 kmh 29.27 in991.2 mb 0.00 in0.0 mm 0.00 in0.0 mm 0.00 in0.0 mm
04:00 AM 81.5°F27.5°C 65.8°F18.8°C 59% 3.1 mph SSW5.0 kmh SSW 7.4 mph11.9 kmh 29.27 in991.2 mb 0.00 in0.0 mm 0.00 in0.0 mm 0.00 in0.0 mm
03:55 AM 81.7°F27.6°C 65.9°F18.8°C 59% 5.3 mph S8.5 kmh S 12.3 mph19.8 kmh 29.27 in991.2 mb 0.00 in0.0 mm 0.00 in0.0 mm 0.00 in0.0 mm
03:50 AM 81.8°F27.7°C 66.0°F18.9°C 59% 3.8 mph SSW6.1 kmh SSW 9.8 mph15.8 kmh 29.27 in991.2 mb 0.00 in0.0 mm 0.00 in0.0 mm 0.00 in0.0 mm
03:45 AM 81.9°F27.7°C 65.6°F18.7°C 58% 2.2 mph S3.5 kmh S 7.4 mph11.9 kmh 29.27 in991.2 mb 0.00 in0.0 mm 0.00 in0.0 mm 0.00 in0.0 mm
03:40 AM 82.0°F27.8°C 65.7°F18.7°C 58% 2.2 mph SW3.5 kmh SW 7.4 mph11.9 kmh 29.26 in990.9 mb 0.00 in0.0 mm 0.00 in0.0 mm 0.00 in0.0 mm
03:35 AM 82.0°F27.8°C 65.7°F18.7°C 58% 3.5 mph S5.6 kmh S 7.4 mph11.9 kmh 29.27 in991.2 mb 0.00 in0.0 mm 0.00 in0.0 mm 0.00 in0.0 mm
03:30 AM 82.0°F27.8°C 65.7°F18.7°C 58% 6.6 mph S10.6 kmh S 12.3 mph19.8 kmh 29.26 in990.9 mb 0.00 in0.0 mm 0.00 in0.0 mm 0.00 in0.0 mm
03:25 AM 82.1°F27.8°C 65.9°F18.8°C 58% 5.9 mph SSE9.5 kmh SSE 9.8 mph15.8 kmh 29.27 in991.2 mb 0.00 in0.0 mm 0.00 in0.0 mm 0.00 in0.0 mm
03:20 AM 82.2°F27.9°C 65.9°F18.8°C 58% 5.3 mph SSE8.5 kmh SSE 9.8 mph15.8 kmh 29.27 in991.2 mb 0.00 in0.0 mm 0.00 in0.0 mm 0.00 in0.0 mm
03:15 AM 82.2°F27.9°C 65.9°F18.8°C 58% 4.5 mph S7.2 kmh S 9.8 mph15.8 kmh 29.26 in990.9 mb 0.00 in0.0 mm 0.00 in0.0 mm 0.00 in0.0 mm
03:10 AM 82.3°F27.9°C 66.2°F19.0°C 58% 5.2 mph S8.4 kmh S 12.3 mph19.8 kmh 29.27 in991.2 mb 0.00 in0.0 mm 0.00 in0.0 mm 0.00 in0.0 mm
03:05 AM 82.5°F28.1°C 66.7°F19.3°C 59% 5.2 mph S8.4 kmh S 15.0 mph24.1 kmh 29.27 in991.2 mb 0.00 in0.0 mm 0.00 in0.0 mm 0.00 in0.0 mm
03:00 AM 82.6°F28.1°C 66.8°F19.3°C 59% 2.7 mph S4.3 kmh S 7.4 mph11.9 kmh 29.27 in991.2 mb 0.00 in0.0 mm 0.00 in0.0 mm 0.00 in0.0 mm
02:55 AM 82.8°F28.2°C 66.7°F19.3°C 58% 1.8 mph SSW2.9 kmh SSW 4.9 mph7.9 kmh 29.27 in991.2 mb 0.00 in0.0 mm 0.00 in0.0 mm 0.00 in0.0 mm
02:50 AM 82.9°F28.3°C 66.6°F19.2°C 58% 2.8 mph S4.5 kmh S 9.8 mph15.8 kmh 29.26 in990.9 mb 0.00 in0.0 mm 0.00 in0.0 mm 0.00 in0.0 mm
02:45 AM 83.1°F28.4°C 66.5°F19.2°C 58% 2.7 mph SSE4.3 kmh SSE 7.4 mph11.9 kmh 29.27 in991.2 mb 0.00 in0.0 mm 0.00 in0.0 mm 0.00 in0.0 mm
02:40 AM 83.1°F28.4°C 66.3°F19.1°C 57% 2.0 mph SW3.2 kmh SW 4.9 mph7.9 kmh 29.27 in991.2 mb 0.00 in0.0 mm 0.00 in0.0 mm 0.00 in0.0 mm
02:35 AM 83.3°F28.5°C 66.8°F19.3°C 58% 3.2 mph SSE5.1 kmh SSE 9.8 mph15.8 kmh 29.27 in991.2 mb 0.00 in0.0 mm 0.00 in0.0 mm 0.00 in0.0 mm
02:30 AM 83.5°F28.6°C 67.1°F19.5°C 58% 3.3 mph SSE5.3 kmh SSE 12.3 mph19.8 kmh 29.28 in991.5 mb 0.00 in0.0 mm 0.00 in0.0 mm 0.00 in0.0 mm
02:25 AM 83.6°F28.7°C 66.7°F19.3°C 57% 2.7 mph SSW4.3 kmh SSW 4.9 mph7.9 kmh 29.28 in991.5 mb 0.00 in0.0 mm 0.00 in0.0 mm 0.00 in0.0 mm
02:20 AM 83.8°F28.8°C 66.9°F19.4°C 57% 3.9 mph S6.3 kmh S 12.3 mph19.8 kmh 29.28 in991.5 mb 0.00 in0.0 mm 0.00 in0.0 mm 0.00 in0.0 mm
02:15 AM 83.9°F28.8°C 67.0°F19.4°C 57% 2.3 mph SW3.7 kmh SW 4.9 mph7.9 kmh 29.28 in991.5 mb 0.00 in0.0 mm 0.00 in0.0 mm 0.00 in0.0 mm
02:10 AM 84.1°F28.9°C 67.2°F19.6°C 57% 3.4 mph S5.5 kmh S 9.8 mph15.8 kmh 29.28 in991.5 mb 0.00 in0.0 mm 0.00 in0.0 mm 0.00 in0.0 mm
02:05 AM 84.3°F29.1°C 67.2°F19.6°C 57% 1.7 mph S2.7 kmh S 7.4 mph11.9 kmh 29.28 in991.5 mb 0.00 in0.0 mm 0.00 in0.0 mm 0.00 in0.0 mm
02:00 AM 84.5°F29.2°C 66.8°F19.3°C 56% 3.1 mph S5.0 kmh S 4.9 mph7.9 kmh 29.28 in991.5 mb 0.00 in0.0 mm 0.00 in0.0 mm 0.00 in0.0 mm
01:55 AM 84.7°F29.3°C 66.7°F19.3°C 55% 3.7 mph SE6.0 kmh SE 7.4 mph11.9 kmh 29.28 in991.5 mb 0.00 in0.0 mm 0.00 in0.0 mm 0.00 in0.0 mm
01:50 AM 84.8°F29.3°C 66.6°F19.2°C 55% 4.5 mph S7.2 kmh S 12.3 mph19.8 kmh 29.28 in991.5 mb 0.00 in0.0 mm 0.00 in0.0 mm 0.00 in0.0 mm
01:45 AM 85.1°F29.5°C 66.5°F19.2°C 54% 5.3 mph SSW8.5 kmh SSW 15.0 mph24.1 kmh 29.28 in991.5 mb 0.00 in0.0 mm 0.00 in0.0 mm 0.00 in0.0 mm
01:40 AM 85.3°F29.6°C 66.7°F19.3°C 54% 2.0 mph S3.2 kmh S 4.9 mph7.9 kmh 29.28 in991.5 mb 0.00 in0.0 mm 0.00 in0.0 mm 0.00 in0.0 mm
01:35 AM 85.5°F29.7°C 66.9°F19.4°C 54% 3.4 mph SW5.5 kmh SW 12.3 mph19.8 kmh 29.28 in991.5 mb 0.00 in0.0 mm 0.00 in0.0 mm 0.00 in0.0 mm
01:30 AM 85.6°F29.8°C 66.6°F19.2°C 53% 1.9 mph SW3.1 kmh SW 4.9 mph7.9 kmh 29.29 in991.9 mb 0.00 in0.0 mm 0.00 in0.0 mm 0.00 in0.0 mm
01:25 AM 85.8°F29.9°C 66.7°F19.3°C 53% 4.5 mph S7.2 kmh S 9.8 mph15.8 kmh 29.28 in991.5 mb 0.00 in0.0 mm 0.00 in0.0 mm 0.00 in0.0 mm
01:20 AM 86.0°F30.0°C 66.8°F19.3°C 53% 7.7 mph SSE12.4 kmh SSE 17.4 mph28.0 kmh 29.28 in991.5 mb 0.00 in0.0 mm 0.00 in0.0 mm 0.00 in0.0 mm
01:15 AM 86.2°F30.1°C 66.6°F19.2°C 52% 6.3 mph S10.1 kmh S 12.3 mph19.8 kmh 29.28 in991.5 mb 0.00 in0.0 mm 0.00 in0.0 mm 0.00 in0.0 mm
01:10 AM 86.4°F30.2°C 66.2°F19.0°C 51% 5.8 mph SSW9.3 kmh SSW 9.8 mph15.8 kmh 29.28 in991.5 mb 0.00 in0.0 mm 0.00 in0.0 mm 0.00 in0.0 mm
01:05 AM 86.5°F30.3°C 66.2°F19.0°C 51% 5.3 mph S8.5 kmh S 9.8 mph15.8 kmh 29.29 in991.9 mb 0.00 in0.0 mm 0.00 in0.0 mm 0.00 in0.0 mm
01:00 AM 86.7°F30.4°C 66.4°F19.1°C 51% 6.5 mph SSE10.5 kmh SSE 15.0 mph24.1 kmh 29.29 in991.9 mb 0.00 in0.0 mm 0.00 in0.0 mm 0.00 in0.0 mm
12:55 AM 87.0°F30.6°C 66.3°F19.1°C 50% 4.8 mph S7.7 kmh S 9.8 mph15.8 kmh 29.28 in991.5 mb 0.00 in0.0 mm 0.00 in0.0 mm 0.00 in0.0 mm
12:50 AM 87.1°F30.6°C 66.2°F19.0°C 50% 6.7 mph SSE10.8 kmh SSE 9.8 mph15.8 kmh 29.28 in991.5 mb 0.00 in0.0 mm 0.00 in0.0 mm 0.00 in0.0 mm
12:45 AM 87.3°F30.7°C 66.4°F19.1°C 50% 6.2 mph S10.0 kmh S 12.3 mph19.8 kmh 29.29 in991.9 mb 0.00 in0.0 mm 0.00 in0.0 mm 0.00 in0.0 mm
12:40 AM 87.4°F30.8°C 66.4°F19.1°C 50% 4.6 mph S7.4 kmh S 9.8 mph15.8 kmh 29.29 in991.9 mb 0.00 in0.0 mm 0.00 in0.0 mm 0.00 in0.0 mm
12:35 AM 87.6°F30.9°C 66.6°F19.2°C 50% 6.9 mph SSE11.1 kmh SSE 19.9 mph32.0 kmh 29.29 in991.9 mb 0.00 in0.0 mm 0.00 in0.0 mm 0.00 in0.0 mm
12:30 AM 87.6°F30.9°C 66.6°F19.2°C 50% 8.4 mph SSE13.5 kmh SSE 12.3 mph19.8 kmh 29.29 in991.9 mb 0.00 in0.0 mm 0.00 in0.0 mm 0.00 in0.0 mm
12:25 AM 87.8°F31.0°C 66.3°F19.1°C 49% 8.2 mph S13.2 kmh S 12.3 mph19.8 kmh 29.29 in991.9 mb 0.00 in0.0 mm 0.00 in0.0 mm 0.00 in0.0 mm
12:20 AM 87.8°F31.0°C 66.2°F19.0°C 49% 8.2 mph SSE13.2 kmh SSE 12.3 mph19.8 kmh 29.29 in991.9 mb 0.00 in0.0 mm 0.00 in0.0 mm 0.00 in0.0 mm
12:15 AM 88.0°F31.1°C 66.0°F18.9°C 48% 6.8 mph S10.9 kmh S 15.0 mph24.1 kmh 29.30 in992.2 mb 0.00 in0.0 mm 0.00 in0.0 mm 0.00 in0.0 mm
12:10 AM 88.1°F31.2°C 65.9°F18.8°C 48% 6.9 mph SE11.1 kmh SE 12.3 mph19.8 kmh 29.29 in991.9 mb 0.00 in0.0 mm 0.00 in0.0 mm 0.00 in0.0 mm
12:05 AM 88.2°F31.2°C 66.0°F18.9°C 48% 7.2 mph SSE11.6 kmh SSE 12.3 mph19.8 kmh 29.30 in992.2 mb 0.00 in0.0 mm 0.00 in0.0 mm 0.00 in0.0 mm
12:00 AM 88.3°F31.3°C 66.1°F18.9°C 48% 7.1 mph S11.4 kmh S 15.0 mph24.1 kmh 29.29 in991.9 mb 0.00 in0.0 mm 0.00 in0.0 mm 0.00 in0.0 mm